West Blue, Nebraska
Current Conditions -  °F | °C
As of 2:53 AM on Wednesday 26 Nov 2014 (Local Time) from KHSI Reporting Station
Clear Clear  
Wind Chill: 25°   Ceiling: Unl
Heat Index: 35°   Visibility: 10mi
Dew Point: 25°   Wind: 16mph
Humidity: 67%   Direction: 310°NW
Pressure: 29.94"   Gusts: NA
Location:  40.5551°N, 98.369°W
Report Text: KHSI 260853Z AUTO 31014KT 10SM CLR 02/M04 A2994 RMK AO2 SLP149 T00171039 53013
Loading
Personal Weather Stations






























Interactive Weather Map New forecast layout! Learn more

10-Day Weather Forecast

Advertisements
Track Severe Weather on mobile